Time;durP1;ratioP1;P1;durP2;ratioP2;P2;SDS_P1;SDS_P2;PMS_P1;PMS_P2;Temp;Humidity;BMP_temperature;BMP_pressure;BME280_temperature;BME280_humidity;BME280_pressure;Samples;Min_cycle;Max_cycle;Signal;HPM_P1;HPM_P2
2021/11/16 00:00:55;;;;;;;36.00;16.40;;;6.70;99.90;;;;;;5009498;28;20138;-84
2021/11/16 00:03:22;;;;;;;40.63;17.95;;;6.70;99.90;;;;;;5037871;28;20638;-85
2021/11/16 00:05:48;;;;;;;42.10;17.08;;;6.70;99.90;;;;;;5006656;28;20581;-84
2021/11/16 00:08:15;;;;;;;40.30;16.35;;;6.70;99.90;;;;;;5020571;28;20145;-84
2021/11/16 00:10:42;;;;;;;45.58;18.23;;;6.70;99.90;;;;;;5021274;28;20131;-84
2021/11/16 00:13:12;;;;;;;49.33;19.05;;;6.70;99.90;;;;;;5027331;28;20129;-85
2021/11/16 00:15:40;;;;;;;48.55;18.85;;;6.70;99.90;;;;;;5030778;28;20099;-84
2021/11/16 00:18:07;;;;;;;43.92;18.25;;;6.70;99.90;;;;;;5028562;28;20049;-84
2021/11/16 00:20:41;;;;;;;46.90;17.05;;;6.70;99.90;;;;;;4996844;28;20065;-84
2021/11/16 00:23:15;;;;;;;46.20;18.23;;;6.70;99.90;;;;;;5038481;28;20084;-84
2021/11/16 00:25:44;;;;;;;45.35;18.23;;;6.70;99.90;;;;;;5002317;28;20089;-84
2021/11/16 00:28:10;;;;;;;42.55;18.38;;;6.70;99.90;;;;;;5031209;28;20475;-85
2021/11/16 00:30:38;;;;;;;47.25;18.10;;;6.70;99.90;;;;;;5012855;28;20077;-85
2021/11/16 00:33:06;;;;;;;39.53;17.65;;;6.70;99.90;;;;;;5032412;28;20514;-85
2021/11/16 00:35:37;;;;;;;44.05;18.83;;;6.70;99.90;;;;;;5012564;28;20076;-84
2021/11/16 00:38:07;;;;;;;45.53;18.83;;;6.70;99.90;;;;;;5013222;28;20128;-84
2021/11/16 00:40:34;;;;;;;46.08;18.92;;;6.70;99.90;;;;;;5007694;28;20457;-84
2021/11/16 00:43:04;;;;;;;46.10;18.75;;;6.70;99.90;;;;;;5031017;28;20088;-84
2021/11/16 00:45:34;;;;;;;45.92;19.45;;;6.70;99.90;;;;;;5050582;28;20473;-84
2021/11/16 00:48:02;;;;;;;48.05;21.05;;;6.70;99.90;;;;;;5050434;28;20057;-84
2021/11/16 00:50:30;;;;;;;53.65;19.55;;;6.70;99.90;;;;;;5037270;28;20130;-84
2021/11/16 00:52:57;;;;;;;48.85;19.40;;;6.70;99.90;;;;;;5038552;28;20124;-85
2021/11/16 00:55:24;;;;;;;45.30;18.90;;;6.70;99.90;;;;;;5033999;28;20490;-85
2021/11/16 00:57:50;;;;;;;53.53;21.17;;;6.60;99.90;;;;;;5011742;28;20095;-84
2021/11/16 01:00:18;;;;;;;50.90;19.95;;;6.60;99.90;;;;;;5010940;28;20080;-84
2021/11/16 01:02:45;;;;;;;52.58;20.17;;;6.60;99.90;;;;;;5035880;28;20074;-84
2021/11/16 01:05:13;;;;;;;56.50;21.35;;;6.60;99.90;;;;;;4999474;28;20137;-84
2021/11/16 01:07:41;;;;;;;56.63;20.92;;;6.70;99.90;;;;;;4997609;28;20132;-84
2021/11/16 01:10:11;;;;;;;59.47;20.92;;;6.70;99.90;;;;;;5007134;28;20050;-84
2021/11/16 01:12:38;;;;;;;48.97;19.95;;;6.70;99.90;;;;;;5036743;28;20069;-84
2021/11/16 01:15:08;;;;;;;53.78;18.88;;;6.70;99.90;;;;;;5025576;28;20749;-84
2021/11/16 01:17:35;;;;;;;53.20;19.63;;;6.70;99.90;;;;;;4997181;28;20136;-84
2021/11/16 01:20:08;;;;;;;54.60;19.98;;;6.60;99.90;;;;;;5018223;28;20521;-84
2021/11/16 01:22:35;;;;;;;50.78;20.38;;;6.70;99.90;;;;;;5039591;28;20139;-84
2021/11/16 01:25:06;;;;;;;46.20;19.30;;;6.60;99.90;;;;;;5037242;28;20056;-84
2021/11/16 01:27:35;;;;;;;47.42;19.88;;;6.60;99.90;;;;;;5030704;28;20661;-85
2021/11/16 01:30:07;;;;;;;47.95;20.40;;;6.60;99.90;;;;;;5030067;28;20552;-84
2021/11/16 01:32:39;;;;;;;48.17;20.13;;;6.60;99.90;;;;;;5025166;28;20513;-85
2021/11/16 01:35:07;;;;;;;46.15;18.58;;;6.60;99.90;;;;;;5016347;28;20133;-84
2021/11/16 01:37:34;;;;;;;42.95;18.02;;;6.60;99.90;;;;;;5010616;28;20049;-84
2021/11/16 01:40:04;;;;;;;46.15;17.67;;;6.60;99.90;;;;;;5018931;28;20079;-85
2021/11/16 01:42:31;;;;;;;45.25;18.67;;;6.60;99.90;;;;;;5042136;28;20433;-85
2021/11/16 01:44:58;;;;;;;52.83;19.42;;;6.50;99.90;;;;;;5033333;28;20083;-84
2021/11/16 01:47:26;;;;;;;47.40;20.42;;;6.50;99.90;;;;;;5034013;28;20720;-84
2021/11/16 01:49:53;;;;;;;43.13;17.13;;;6.50;99.90;;;;;;5019408;28;20073;-84
2021/11/16 01:52:20;;;;;;;37.22;15.98;;;6.50;99.90;;;;;;5032887;28;20077;-84
2021/11/16 01:54:46;;;;;;;39.55;17.58;;;6.50;99.90;;;;;;5045276;28;20128;-84
2021/11/16 01:57:13;;;;;;;42.55;17.08;;;6.50;99.90;;;;;;5053612;28;20072;-84
2021/11/16 01:59:40;;;;;;;39.88;16.17;;;6.50;99.90;;;;;;5034080;28;20807;-84
2021/11/16 02:02:10;;;;;;;42.58;16.55;;;6.50;99.90;;;;;;5035122;28;20076;-84
2021/11/16 02:04:37;;;;;;;40.35;16.23;;;6.50;99.90;;;;;;5016592;28;20058;-85
2021/11/16 02:07:06;;;;;;;41.47;17.63;;;6.50;99.90;;;;;;5022431;28;20073;-85
2021/11/16 02:09:34;;;;;;;43.30;17.25;;;6.50;99.90;;;;;;5029024;28;20050;-85
2021/11/16 02:12:02;;;;;;;43.00;16.75;;;6.50;99.90;;;;;;5045153;28;20573;-84
2021/11/16 02:14:29;;;;;;;45.63;17.48;;;6.50;99.90;;;;;;5053496;28;20084;-84
2021/11/16 02:16:56;;;;;;;45.58;17.70;;;6.50;99.90;;;;;;5053985;28;20128;-85
2021/11/16 02:19:23;;;;;;;41.22;16.88;;;6.50;99.90;;;;;;5038977;28;20081;-84
2021/11/16 02:21:50;;;;;;;44.95;18.80;;;6.50;99.90;;;;;;5034378;28;20450;-84
2021/11/16 02:24:18;;;;;;;39.88;17.20;;;6.50;99.90;;;;;;5037711;28;20049;-84
2021/11/16 02:26:59;;;;;;;46.22;18.35;;;6.50;99.90;;;;;;5033605;28;20145;-84
2021/11/16 02:29:26;;;;;;;40.70;16.35;;;6.50;99.90;;;;;;5022915;28;20701;-85
2021/11/16 02:31:54;;;;;;;39.72;17.42;;;6.50;99.90;;;;;;5027701;28;20132;-84
2021/11/16 02:34:23;;;;;;;38.47;16.63;;;6.50;99.90;;;;;;5039267;28;20077;-85
2021/11/16 02:36:50;;;;;;;44.63;19.25;;;6.50;99.90;;;;;;5033909;28;20144;-84
2021/11/16 02:39:18;;;;;;;43.90;16.88;;;6.50;99.90;;;;;;5030386;28;20144;-84
2021/11/16 02:41:50;;;;;;;39.28;16.85;;;6.50;99.90;;;;;;5026048;28;20525;-84
2021/11/16 02:44:18;;;;;;;39.78;17.27;;;6.50;99.90;;;;;;5022389;28;20771;-84
2021/11/16 02:46:49;;;;;;;43.17;17.55;;;6.50;99.90;;;;;;5022113;28;20129;-85
2021/11/16 02:49:17;;;;;;;43.53;17.00;;;6.50;99.90;;;;;;4995996;28;20042;-84
2021/11/16 02:51:44;;;;;;;39.40;17.67;;;6.50;99.90;;;;;;5017239;28;20128;-84
2021/11/16 02:54:14;;;;;;;40.42;17.30;;;6.50;99.90;;;;;;5041904;28;20134;-84
2021/11/16 02:56:41;;;;;;;45.28;18.48;;;6.50;99.90;;;;;;5014583;28;20088;-85
2021/11/16 02:59:10;;;;;;;42.65;17.33;;;6.50;99.90;;;;;;5005240;28;20092;-84
2021/11/16 03:01:38;;;;;;;38.65;17.27;;;6.50;99.90;;;;;;5008680;28;20125;-84
2021/11/16 03:04:05;;;;;;;41.17;17.58;;;6.40;99.90;;;;;;5043947;28;20052;-84
2021/11/16 03:06:32;;;;;;;40.72;17.42;;;6.50;99.90;;;;;;5016115;28;20069;-84
2021/11/16 03:09:00;;;;;;;38.25;16.73;;;6.50;99.90;;;;;;5014389;28;20054;-84
2021/11/16 03:11:27;;;;;;;49.80;18.00;;;6.50;99.90;;;;;;5039711;28;20084;-84
2021/11/16 03:13:54;;;;;;;47.08;17.38;;;6.50;99.90;;;;;;5011385;28;20214;-84
2021/11/16 03:16:23;;;;;;;37.65;16.73;;;6.50;99.90;;;;;;5011840;28;20081;-84
2021/11/16 03:18:53;;;;;;;44.05;17.85;;;6.50;99.90;;;;;;5015793;28;20497;-84
2021/11/16 03:21:24;;;;;;;47.13;18.35;;;6.50;99.90;;;;;;4994011;28;20577;-84
2021/11/16 03:23:53;;;;;;;44.72;17.02;;;6.50;99.90;;;;;;5038186;28;20087;-84
2021/11/16 03:26:23;;;;;;;44.03;17.40;;;6.40;99.90;;;;;;5012998;28;20061;-84
2021/11/16 03:28:51;;;;;;;46.42;18.80;;;6.50;99.90;;;;;;5008762;28;20570;-84
2021/11/16 03:31:28;;;;;;;41.95;17.90;;;6.40;99.90;;;;;;5016003;28;20774;-84
2021/11/16 03:33:55;;;;;;;48.85;17.40;;;6.40;99.90;;;;;;5006376;28;20049;-85
2021/11/16 03:36:23;;;;;;;44.97;18.50;;;6.40;99.90;;;;;;4995642;28;20754;-84
2021/11/16 03:38:52;;;;;;;51.97;20.23;;;6.40;99.90;;;;;;5027305;28;20145;-85
2021/11/16 03:41:20;;;;;;;47.20;17.95;;;6.50;99.90;;;;;;5043636;28;20084;-85
2021/11/16 03:43:49;;;;;;;44.00;18.70;;;6.40;99.90;;;;;;5033530;28;20092;-85
2021/11/16 03:46:15;;;;;;;46.10;17.98;;;6.40;99.90;;;;;;5032065;28;20091;-86
2021/11/16 03:48:42;;;;;;;42.63;17.17;;;6.40;99.90;;;;;;5020787;28;20447;-84
2021/11/16 03:51:09;;;;;;;44.00;18.52;;;6.40;99.90;;;;;;4999890;28;20055;-84
2021/11/16 03:53:36;;;;;;;46.10;18.73;;;6.40;99.90;;;;;;5040423;28;20048;-84
2021/11/16 03:56:04;;;;;;;41.45;17.83;;;6.40;99.90;;;;;;5015919;28;20084;-85
2021/11/16 03:58:30;;;;;;;44.53;18.58;;;6.40;99.90;;;;;;5030801;28;20076;-85
2021/11/16 04:01:01;;;;;;;42.03;18.75;;;6.40;99.90;;;;;;5022287;28;20055;-85
2021/11/16 04:03:30;;;;;;;44.83;19.42;;;6.40;99.90;;;;;;5039958;28;20072;-84
2021/11/16 04:05:58;;;;;;;51.13;19.80;;;6.40;99.90;;;;;;5031767;28;20049;-85
2021/11/16 04:08:25;;;;;;;50.00;18.88;;;6.40;99.90;;;;;;5020035;28;20140;-84
2021/11/16 04:10:53;;;;;;;46.15;18.75;;;6.40;99.90;;;;;;5017112;28;20045;-84
2021/11/16 04:13:20;;;;;;;45.97;19.50;;;6.40;99.90;;;;;;5046616;28;20045;-84
2021/11/16 04:15:48;;;;;;;41.63;18.27;;;6.40;99.90;;;;;;5003215;28;20045;-85
2021/11/16 04:18:16;;;;;;;51.92;20.00;;;6.40;99.90;;;;;;4994314;28;20161;-85
2021/11/16 04:20:47;;;;;;;52.25;19.63;;;6.40;99.90;;;;;;5011293;28;20088;-84
2021/11/16 04:23:16;;;;;;;52.53;21.38;;;6.40;99.90;;;;;;5033838;28;20077;-85
2021/11/16 04:25:45;;;;;;;49.60;19.80;;;6.40;99.90;;;;;;5025037;28;20130;-85
2021/11/16 04:28:14;;;;;;;54.53;21.20;;;6.40;99.90;;;;;;5027914;28;20085;-85
2021/11/16 04:30:42;;;;;;;51.28;20.52;;;6.40;99.90;;;;;;5017269;28;20081;-85
2021/11/16 04:33:10;;;;;;;49.72;20.48;;;6.40;99.90;;;;;;5039395;28;20045;-85
2021/11/16 04:35:37;;;;;;;52.38;20.08;;;6.40;99.90;;;;;;5030036;28;20100;-85
2021/11/16 04:38:06;;;;;;;50.25;20.98;;;6.40;99.90;;;;;;5019880;28;20049;-84
2021/11/16 04:40:38;;;;;;;53.70;21.00;;;6.40;99.90;;;;;;5034402;28;20176;-84
2021/11/16 04:43:09;;;;;;;50.05;20.52;;;6.40;99.90;;;;;;5020481;28;20731;-84
2021/11/16 04:45:52;;;;;;;49.65;21.15;;;6.40;99.90;;;;;;5021657;28;20498;-85
2021/11/16 04:48:31;;;;;;;54.20;21.00;;;6.40;99.90;;;;;;5031206;28;20087;-85
2021/11/16 04:59:33;;;;;;;54.15;21.80;;;6.40;99.90;;;;;;5020989;28;20132;-84
2021/11/16 04:59:36;;;;;;;53.05;19.33;;;6.40;99.90;;;;;;5030284;28;20049;-84
2021/11/16 05:04:54;;;;;;;61.67;22.02;;;6.40;99.90;;;;;;5022474;28;20077;-84
2021/11/16 05:07:22;;;;;;;57.70;21.88;;;6.40;99.90;;;;;;5022556;28;20080;-84
2021/11/16 05:09:55;;;;;;;61.80;23.02;;;6.30;99.90;;;;;;5032818;28;20060;-83
2021/11/16 05:12:24;;;;;;;54.60;20.85;;;6.30;99.90;;;;;;5024427;28;20084;-84
2021/11/16 05:14:52;;;;;;;60.15;22.52;;;6.40;99.90;;;;;;5050420;28;20506;-84
2021/11/16 05:17:19;;;;;;;69.30;24.90;;;6.40;99.90;;;;;;5041354;28;20076;-84
2021/11/16 05:19:46;;;;;;;56.40;22.77;;;6.40;99.90;;;;;;5034211;28;20042;-84
2021/11/16 05:22:13;;;;;;;59.30;22.92;;;6.40;99.90;;;;;;5022321;28;20099;-84
2021/11/16 05:24:40;;;;;;;57.30;23.00;;;6.40;99.90;;;;;;5033371;28;20073;-83
2021/11/16 05:27:08;;;;;;;61.22;22.85;;;6.40;99.90;;;;;;5010084;28;20069;-83
2021/11/16 05:29:35;;;;;;;64.13;24.13;;;6.40;99.90;;;;;;5016556;28;20084;-83
2021/11/16 05:32:03;;;;;;;67.65;23.30;;;6.40;99.90;;;;;;5030760;28;20053;-83
2021/11/16 05:34:29;;;;;;;62.55;22.75;;;6.40;99.90;;;;;;5029022;28;20072;-83
2021/11/16 05:36:56;;;;;;;60.42;24.48;;;6.40;99.90;;;;;;5054932;28;20163;-83
2021/11/16 05:39:23;;;;;;;68.15;26.05;;;6.40;99.90;;;;;;5034148;28;20129;-83
2021/11/16 05:41:50;;;;;;;66.45;23.27;;;6.40;99.90;;;;;;5025523;28;20057;-83
2021/11/16 05:44:18;;;;;;;66.65;23.33;;;6.40;99.90;;;;;;5050275;28;20095;-84
2021/11/16 05:46:48;;;;;;;64.38;23.23;;;6.40;99.90;;;;;;5016400;28;20480;-84
2021/11/16 05:49:15;;;;;;;63.85;23.50;;;6.40;99.90;;;;;;5030561;28;20081;-82
2021/11/16 05:51:41;;;;;;;66.60;24.05;;;6.40;99.90;;;;;;5022613;28;20041;-82
2021/11/16 05:54:16;;;;;;;64.40;23.02;;;6.40;99.90;;;;;;5041757;28;20081;-81
2021/11/16 05:56:44;;;;;;;62.67;24.83;;;6.40;99.90;;;;;;5030447;28;20080;-80
2021/11/16 05:59:11;;;;;;;60.08;24.55;;;6.40;99.90;;;;;;5032753;28;20323;-82
2021/11/16 06:01:39;;;;;;;74.05;25.45;;;6.40;99.90;;;;;;5024550;28;20695;-81
2021/11/16 06:04:06;;;;;;;66.40;24.33;;;6.40;99.90;;;;;;5045212;28;20048;-81
2021/11/16 06:06:35;;;;;;;68.20;23.70;;;6.40;99.90;;;;;;5034734;28;20056;-83
2021/11/16 06:09:05;;;;;;;58.42;24.42;;;6.40;99.90;;;;;;5031980;28;20084;-84
2021/11/16 06:11:33;;;;;;;66.90;24.35;;;6.40;99.90;;;;;;5010409;28;20053;-83
2021/11/16 06:14:00;;;;;;;60.72;23.45;;;6.40;99.90;;;;;;5021815;28;20077;-82
2021/11/16 06:16:27;;;;;;;65.57;23.52;;;6.40;99.90;;;;;;5028892;28;20049;-82
2021/11/16 06:19:18;;;;;;;70.65;24.27;;;6.40;99.90;;;;;;5007338;28;20113;-85
2021/11/16 06:21:46;;;;;;;65.88;23.83;;;6.40;99.90;;;;;;5025403;28;20125;-84
2021/11/16 06:24:13;;;;;;;65.50;23.52;;;6.40;99.90;;;;;;5011073;28;20058;-83
2021/11/16 06:26:40;;;;;;;68.45;24.55;;;6.40;99.90;;;;;;5029850;28;20077;-83
2021/11/16 06:29:07;;;;;;;68.05;24.50;;;6.40;99.90;;;;;;5006676;28;20104;-83
2021/11/16 06:31:35;;;;;;;61.97;23.35;;;6.50;99.90;;;;;;5030607;28;20152;-83
2021/11/16 06:34:03;;;;;;;66.25;23.77;;;6.50;99.90;;;;;;5048064;28;20691;-82
2021/11/16 06:36:50;;;;;;;66.38;24.67;;;6.50;99.90;;;;;;5024325;28;20124;-84
2021/11/16 06:39:21;;;;;;;63.05;23.83;;;6.50;99.90;;;;;;5007836;28;20046;-75
2021/11/16 06:41:50;;;;;;;59.63;23.85;;;6.50;99.90;;;;;;5022214;28;20049;-75
2021/11/16 06:44:19;;;;;;;75.75;25.38;;;6.50;99.90;;;;;;5026619;28;20057;-73
2021/11/16 06:46:48;;;;;;;61.80;22.67;;;6.50;99.90;;;;;;5023108;28;20080;-74
2021/11/16 06:49:17;;;;;;;66.25;25.05;;;6.50;99.90;;;;;;4998786;28;20049;-83
2021/11/16 06:51:46;;;;;;;69.78;25.35;;;6.50;99.90;;;;;;5012323;28;20073;-82
2021/11/16 06:54:17;;;;;;;66.50;26.05;;;6.50;99.90;;;;;;5037264;28;20688;-82
2021/11/16 06:56:49;;;;;;;60.63;23.90;;;6.40;99.90;;;;;;5031572;28;20127;-82
2021/11/16 06:59:19;;;;;;;71.78;25.35;;;6.40;99.90;;;;;;5025364;28;20487;-82
2021/11/16 07:01:49;;;;;;;71.20;25.83;;;6.50;99.90;;;;;;4999447;28;20081;-82
2021/11/16 07:04:18;;;;;;;67.45;25.30;;;6.40;99.90;;;;;;5044884;28;20080;-82
2021/11/16 07:06:48;;;;;;;72.63;26.58;;;6.40;99.90;;;;;;5035644;28;20091;-83
2021/11/16 07:09:17;;;;;;;75.88;26.52;;;6.40;99.90;;;;;;5030488;28;20088;-82
2021/11/16 07:11:48;;;;;;;68.80;26.00;;;6.40;99.90;;;;;;5048802;28;20811;-83
2021/11/16 07:14:18;;;;;;;73.68;26.08;;;6.50;99.90;;;;;;5032823;28;20433;-82
2021/11/16 07:17:07;;;;;;;77.75;26.67;;;6.50;99.90;;;;;;5032956;28;20076;-83
2021/11/16 07:19:43;;;;;;;78.10;26.67;;;6.50;99.90;;;;;;5014462;28;20096;-82
2021/11/16 07:22:21;;;;;;;78.40;27.77;;;6.50;99.90;;;;;;5014100;28;20103;-82
2021/11/16 07:24:57;;;;;;;69.20;24.50;;;6.50;99.90;;;;;;5044205;28;20057;-82
2021/11/16 07:27:36;;;;;;;76.82;26.48;;;6.50;99.90;;;;;;5052015;28;20135;-82
2021/11/16 07:30:07;;;;;;;80.32;28.63;;;6.50;99.90;;;;;;5025358;28;20084;-82
2021/11/16 07:32:57;;;;;;;76.25;27.90;;;6.50;99.90;;;;;;5005492;28;20126;-82
2021/11/16 07:35:33;;;;;;;88.25;28.33;;;6.50;99.90;;;;;;5042949;28;20049;-83
2021/11/16 07:38:09;;;;;;;73.10;26.45;;;6.50;99.90;;;;;;5052250;28;20659;-83
2021/11/16 07:40:41;;;;;;;86.15;30.40;;;6.50;99.90;;;;;;5022507;28;20045;-82
2021/11/16 07:43:10;;;;;;;83.72;30.52;;;6.50;99.90;;;;;;5047031;28;20049;-82
2021/11/16 07:45:37;;;;;;;86.07;29.23;;;6.50;99.90;;;;;;4995031;28;20855;-82
2021/11/16 07:48:18;;;;;;;84.43;30.92;;;6.50;99.90;;;;;;5012458;28;20494;-83
2021/11/16 07:50:52;;;;;;;80.65;28.20;;;6.60;99.90;;;;;;5031841;28;20088;-82
2021/11/16 07:53:39;;;;;;;88.22;31.23;;;6.50;99.90;;;;;;5035446;28;20078;-83
2021/11/16 07:56:06;;;;;;;93.90;31.75;;;6.50;99.90;;;;;;5012317;28;20086;-82
2021/11/16 07:58:43;;;;;;;90.30;29.85;;;6.50;99.90;;;;;;5014364;28;20140;-82
2021/11/16 08:01:21;;;;;;;88.13;32.15;;;6.50;99.90;;;;;;5018202;28;20811;-82
2021/11/16 08:04:17;;;;;;;87.45;29.65;;;6.50;99.90;;;;;;5041716;28;20060;-82
2021/11/16 08:06:40;;;;;;;85.60;28.63;;;6.50;99.90;;;;;;5011475;28;20411;-82
2021/11/16 08:12:06;;;;;;;96.40;31.20;;;6.50;99.90;;;;;;5031181;28;20068;-82
2021/11/16 08:14:35;;;;;;;91.03;30.77;;;6.50;99.90;;;;;;5029030;28;20257;-82
2021/11/16 08:17:06;;;;;;;89.18;32.03;;;6.50;99.90;;;;;;5012639;28;20049;-82
2021/11/16 08:19:35;;;;;;;91.95;32.33;;;6.50;99.90;;;;;;5017121;28;20076;-82
2021/11/16 08:22:05;;;;;;;96.05;32.40;;;6.50;99.90;;;;;;5009978;28;20080;-82
2021/11/16 08:24:34;;;;;;;92.15;31.50;;;6.60;99.90;;;;;;5040786;28;20080;-83
2021/11/16 08:27:08;;;;;;;97.72;32.85;;;6.60;99.90;;;;;;5051779;28;20103;-82
2021/11/16 08:29:41;;;;;;;95.70;31.05;;;6.60;99.90;;;;;;5039520;28;20187;-82
2021/11/16 08:32:23;;;;;;;89.25;31.27;;;6.60;99.90;;;;;;5027232;28;20478;-83
2021/11/16 08:34:54;;;;;;;105.05;32.45;;;6.60;99.90;;;;;;5010104;28;20532;-83
2021/11/16 08:37:23;;;;;;;83.45;28.85;;;6.60;99.90;;;;;;5031862;28;20041;-83
2021/11/16 08:39:56;;;;;;;99.10;31.13;;;6.60;99.90;;;;;;5033440;28;20045;-83
2021/11/16 08:42:29;;;;;;;90.13;32.20;;;6.60;99.90;;;;;;5045078;28;20045;-83
2021/11/16 08:45:07;;;;;;;94.38;31.17;;;6.60;99.90;;;;;;5023134;28;20046;-82
2021/11/16 08:47:38;;;;;;;87.50;31.05;;;6.60;99.90;;;;;;5027778;28;20212;-83
2021/11/16 08:50:19;;;;;;;98.00;31.27;;;6.60;99.90;;;;;;5031334;28;20414;-83
2021/11/16 08:52:47;;;;;;;99.40;32.40;;;6.60;99.90;;;;;;5012254;28;20081;-83
2021/11/16 08:55:20;;;;;;;97.55;31.60;;;6.60;99.90;;;;;;5044751;28;20083;-83
2021/11/16 08:57:49;;;;;;;98.55;31.73;;;6.60;99.90;;;;;;5042858;28;20149;-83
2021/11/16 09:00:26;;;;;;;99.65;30.52;;;6.70;99.90;;;;;;5022126;28;20100;-83
2021/11/16 09:03:11;;;;;;;95.15;31.02;;;6.70;99.90;;;;;;5040589;28;20049;-83
2021/11/16 09:05:45;;;;;;;92.55;29.10;;;6.70;99.90;;;;;;5024775;28;20046;-83
2021/11/16 09:08:25;;;;;;;94.75;29.90;;;6.70;99.90;;;;;;5030699;28;20077;-82
2021/11/16 09:10:56;;;;;;;96.20;30.42;;;6.70;99.90;;;;;;5032227;28;20084;-83
2021/11/16 09:13:34;;;;;;;104.40;31.17;;;6.60;99.90;;;;;;5036465;28;20076;-83
2021/11/16 09:16:07;;;;;;;102.18;32.10;;;6.60;99.90;;;;;;5031061;28;20049;-83
2021/11/16 09:18:39;;;;;;;98.18;30.52;;;6.70;99.90;;;;;;5031024;28;20061;-83
2021/11/16 09:21:10;;;;;;;89.10;28.63;;;6.70;99.90;;;;;;5015846;28;20103;-83
2021/11/16 09:24:02;;;;;;;101.68;32.05;;;6.60;99.90;;;;;;5039358;28;20084;-83
2021/11/16 09:26:37;;;;;;;107.15;31.85;;;6.70;99.90;;;;;;5029619;28;20107;-82
2021/11/16 09:29:17;;;;;;;95.85;31.02;;;6.70;99.90;;;;;;5028062;28;20514;-83
2021/11/16 09:31:55;;;;;;;96.20;32.17;;;6.70;99.90;;;;;;5036547;28;20819;-82
2021/11/16 09:34:36;;;;;;;105.70;32.53;;;6.70;99.90;;;;;;5038117;28;20088;-83
2021/11/16 09:37:13;;;;;;;106.78;31.95;;;6.70;99.90;;;;;;5003674;28;20074;-82
2021/11/16 09:39:47;;;;;;;105.22;32.22;;;6.80;99.90;;;;;;5007989;28;20077;-82
2021/11/16 09:42:39;;;;;;;100.25;32.53;;;6.80;99.90;;;;;;5037285;28;20045;-84
2021/11/16 09:45:16;;;;;;;103.78;32.75;;;6.80;99.90;;;;;;4993823;28;20812;-84
2021/11/16 09:47:45;;;;;;;97.88;31.17;;;6.80;99.90;;;;;;4995066;28;20626;-84
2021/11/16 09:50:18;;;;;;;95.30;29.92;;;6.70;99.90;;;;;;5016296;28;20109;-83
2021/11/16 09:52:51;;;;;;;110.50;32.05;;;6.70;99.90;;;;;;5004532;28;20077;-83
2021/11/16 09:55:22;;;;;;;109.13;32.70;;;6.70;99.90;;;;;;5022320;28;20076;-85
2021/11/16 09:57:59;;;;;;;100.68;31.08;;;6.70;99.90;;;;;;5013595;28;20725;-81
2021/11/16 10:00:33;;;;;;;98.63;31.95;;;6.80;99.90;;;;;;5001414;28;20161;-85
2021/11/16 10:03:00;;;;;;;98.07;31.50;;;6.80;99.90;;;;;;5035323;28;20051;-81
2021/11/16 10:05:32;;;;;;;98.22;30.52;;;6.90;99.90;;;;;;5022688;28;20054;-82
2021/11/16 10:08:01;;;;;;;98.55;29.83;;;6.90;99.90;;;;;;5034950;28;20076;-81
2021/11/16 10:10:31;;;;;;;91.68;27.80;;;6.90;99.90;;;;;;5019530;28;20449;-82
2021/11/16 10:13:02;;;;;;;98.07;29.45;;;6.90;99.90;;;;;;5045794;28;20045;-78
2021/11/16 10:15:31;;;;;;;91.45;27.73;;;6.90;99.90;;;;;;5039351;28;20072;-78
2021/11/16 10:17:59;;;;;;;86.65;28.98;;;7.00;99.90;;;;;;5033949;28;20073;-77
2021/11/16 10:20:30;;;;;;;99.88;31.40;;;7.00;99.90;;;;;;5015571;28;20088;-79
2021/11/16 10:23:29;;;;;;;87.47;28.90;;;6.90;99.90;;;;;;5011644;28;20132;-78
2021/11/16 10:25:58;;;;;;;91.75;30.70;;;7.00;99.90;;;;;;5037461;28;20045;-79
2021/11/16 10:28:25;;;;;;;99.25;31.92;;;6.90;99.90;;;;;;5026187;28;20089;-79
2021/11/16 10:30:57;;;;;;;95.18;30.90;;;7.00;99.90;;;;;;5036669;28;20081;-81
2021/11/16 10:33:32;;;;;;;102.18;29.77;;;7.00;99.90;;;;;;5031514;28;20064;-80
2021/11/16 10:36:04;;;;;;;92.10;29.52;;;6.90;99.90;;;;;;5027333;28;20073;-80
2021/11/16 10:38:37;;;;;;;98.70;30.58;;;7.00;99.90;;;;;;5012198;28;20125;-82
2021/11/16 10:41:20;;;;;;;92.15;29.10;;;7.00;99.90;;;;;;5039144;28;20156;-82
2021/11/16 10:43:58;;;;;;;100.85;28.92;;;6.90;99.90;;;;;;5026493;28;20714;-83
2021/11/16 10:46:31;;;;;;;91.82;28.73;;;7.00;99.90;;;;;;5041209;28;20085;-81
2021/11/16 10:49:01;;;;;;;97.03;29.77;;;7.00;99.90;;;;;;5036363;28;20085;-83
2021/11/16 10:51:34;;;;;;;89.13;29.52;;;6.90;99.90;;;;;;5030462;28;20494;-82
2021/11/16 10:54:04;;;;;;;99.55;29.70;;;6.90;99.90;;;;;;5006203;28;20148;-82
2021/11/16 10:56:34;;;;;;;107.55;29.90;;;6.90;99.90;;;;;;5030612;28;20049;-83
2021/11/16 10:59:09;;;;;;;103.07;32.22;;;6.90;99.90;;;;;;5030483;28;20073;-83
2021/11/16 11:01:55;;;;;;;108.80;33.65;;;6.90;99.90;;;;;;5027304;28;20123;-82
2021/11/16 11:04:25;;;;;;;99.78;29.73;;;6.90;99.90;;;;;;5027977;28;20060;-82
2021/11/16 11:07:11;;;;;;;111.30;32.17;;;6.90;99.90;;;;;;5036232;28;20081;-81
2021/11/16 11:09:39;;;;;;;103.38;30.65;;;6.90;99.90;;;;;;5027773;28;20088;-76
2021/11/16 11:12:21;;;;;;;102.05;30.75;;;6.90;99.90;;;;;;5007366;28;20049;-75
2021/11/16 11:14:53;;;;;;;115.20;33.75;;;7.00;99.90;;;;;;5003167;28;20161;-76
2021/11/16 11:17:32;;;;;;;99.03;32.60;;;7.00;99.90;;;;;;5003133;28;20794;-76
2021/11/16 11:20:08;;;;;;;104.00;31.13;;;7.10;99.90;;;;;;5024241;28;20484;-76
2021/11/16 11:22:40;;;;;;;93.47;29.17;;;7.10;99.90;;;;;;5025322;28;20140;-76
2021/11/16 11:25:51;;;;;;;101.75;31.80;;;7.10;99.90;;;;;;5031394;28;20069;-76
2021/11/16 11:28:00;;;;;;;99.18;30.95;;;7.10;99.90;;;;;;5005072;28;20153;-76
2021/11/16 11:30:32;;;;;;;106.18;31.95;;;7.10;99.90;;;;;;5008168;28;20164;-76
2021/11/16 11:32:59;;;;;;;103.20;30.98;;;7.10;99.90;;;;;;5027898;28;20073;-76
2021/11/16 11:35:30;;;;;;;95.13;30.38;;;7.10;99.90;;;;;;5017001;28;20138;-76
2021/11/16 11:38:08;;;;;;;99.47;31.35;;;7.10;99.90;;;;;;5005914;28;20104;-76
2021/11/16 11:40:37;;;;;;;101.07;31.65;;;7.10;99.90;;;;;;5024639;28;20129;-76
2021/11/16 11:43:07;;;;;;;110.95;31.80;;;7.10;99.90;;;;;;5026717;28;20177;-75
2021/11/16 11:45:40;;;;;;;110.10;31.38;;;7.10;99.90;;;;;;5006344;28;20147;-75
2021/11/16 11:48:22;;;;;;;112.45;33.63;;;7.10;99.90;;;;;;5003994;28;20084;-75
2021/11/16 11:50:53;;;;;;;98.68;30.17;;;7.00;99.90;;;;;;5025253;28;20065;-76
2021/11/16 11:53:26;;;;;;;115.05;32.15;;;7.00;99.90;;;;;;5008431;28;20140;-76
2021/11/16 11:55:57;;;;;;;108.88;31.40;;;7.00;99.90;;;;;;5027329;28;20057;-75
2021/11/16 11:58:26;;;;;;;100.05;31.17;;;7.00;99.90;;;;;;5046122;28;20077;-75
2021/11/16 12:00:56;;;;;;;96.75;32.17;;;6.90;99.90;;;;;;5021484;28;20049;-75
2021/11/16 12:03:24;;;;;;;102.88;32.22;;;6.90;99.90;;;;;;5026587;28;20045;-74
2021/11/16 12:05:51;;;;;;;109.78;34.90;;;6.90;99.90;;;;;;5019271;28;20052;-75
2021/11/16 12:08:18;;;;;;;125.22;38.65;;;7.00;99.90;;;;;;5029603;28;20112;-76
2021/11/16 12:10:49;;;;;;;118.28;32.35;;;7.00;99.90;;;;;;5012075;28;20069;-74
2021/11/16 12:13:23;;;;;;;106.00;32.90;;;7.00;99.90;;;;;;5005314;28;20521;-75
2021/11/16 12:16:12;;;;;;;119.55;34.22;;;7.00;99.90;;;;;;5016551;28;20056;-75
2021/11/16 12:18:45;;;;;;;106.07;31.95;;;7.00;99.90;;;;;;5006207;28;20714;-75
2021/11/16 12:21:28;;;;;;;100.50;31.98;;;7.00;99.90;;;;;;5020835;28;20089;-75
2021/11/16 12:24:09;;;;;;;107.22;32.08;;;7.00;99.90;;;;;;5005295;28;20176;-76
2021/11/16 12:27:01;;;;;;;119.80;32.90;;;7.00;99.90;;;;;;4997563;28;20069;-76
2021/11/16 12:29:31;;;;;;;104.80;34.03;;;7.00;99.90;;;;;;5022617;28;20081;-76
2021/11/16 12:32:24;;;;;;;103.28;32.97;;;7.00;99.90;;;;;;5025584;28;20089;-76
2021/11/16 12:35:06;;;;;;;115.03;34.55;;;7.00;99.90;;;;;;5017018;28;20139;-76
2021/11/16 12:37:46;;;;;;;106.50;35.28;;;7.00;99.90;;;;;;5022501;28;20129;-76
2021/11/16 12:40:34;;;;;;;114.68;33.47;;;7.00;99.90;;;;;;5025655;28;20096;-76
2021/11/16 12:43:07;;;;;;;123.00;34.38;;;6.90;99.90;;;;;;5030268;28;20152;-76
2021/11/16 12:46:01;;;;;;;109.10;35.25;;;6.90;99.90;;;;;;5027086;28;20140;-76
2021/11/16 12:48:50;;;;;;;106.35;32.75;;;6.90;99.90;;;;;;4995220;28;20085;-76
2021/11/16 12:51:23;;;;;;;109.85;32.75;;;6.90;99.90;;;;;;5018572;28;20135;-76
2021/11/16 12:53:59;;;;;;;117.97;34.40;;;6.90;99.90;;;;;;5039348;28;20107;-82
2021/11/16 12:56:49;;;;;;;116.95;33.78;;;6.90;99.90;;;;;;5033179;28;20052;-81
2021/11/16 12:59:23;;;;;;;109.63;34.33;;;6.90;99.90;;;;;;5045485;28;20038;-82
2021/11/16 13:02:18;;;;;;;108.25;32.15;;;6.90;99.90;;;;;;5035390;28;20107;-81
2021/11/16 13:04:54;;;;;;;111.93;34.85;;;6.90;99.90;;;;;;5033120;28;20534;-82
2021/11/16 13:07:41;;;;;;;106.60;32.70;;;6.90;99.90;;;;;;5019549;28;20517;-82
2021/11/16 13:10:27;;;;;;;108.80;33.25;;;6.90;99.90;;;;;;5022050;28;20682;-82